createdAt,value
2023-05-22T00:00:21.857Z,83.05
2023-05-22T00:03:10.757Z,80.06
2023-05-22T00:05:41.281Z,80.13
2023-05-22T00:08:11.750Z,81.16
2023-05-22T00:10:40.395Z,80.13
2023-05-22T00:13:10.051Z,81.20
2023-05-22T00:15:38.500Z,83.66
2023-05-22T00:18:08.314Z,81.80
2023-05-22T00:20:38.895Z,85.67
2023-05-22T00:23:10.400Z,83.49
2023-05-22T00:25:39.447Z,87.06
2023-05-22T00:28:09.154Z,85.44
2023-05-22T00:30:39.099Z,86.38
2023-05-22T00:33:07.411Z,87.64
2023-05-22T00:35:35.869Z,87.00
2023-05-22T00:38:05.446Z,88.01
2023-05-22T00:40:34.031Z,86.28
2023-05-22T00:43:08.494Z,85.32
2023-05-22T00:45:38.797Z,86.59
2023-05-22T00:48:09.656Z,84.95
2023-05-22T00:50:38.515Z,83.92
2023-05-22T00:53:06.929Z,82.78
2023-05-22T00:55:35.382Z,84.35
2023-05-22T00:58:07.905Z,84.83
2023-05-22T01:00:38.654Z,84.38
2023-05-22T01:03:08.100Z,83.20
2023-05-22T01:05:37.294Z,85.61
2023-05-22T01:08:06.262Z,86.17
2023-05-22T01:10:35.520Z,85.76
2023-05-22T01:13:10.598Z,84.78
2023-05-22T01:15:45.470Z,84.70
2023-05-22T01:18:21.639Z,83.87
2023-05-22T01:20:58.280Z,85.42
2023-05-22T01:23:57.788Z,85.68
2023-05-22T01:26:57.204Z,86.34
2023-05-22T01:29:38.325Z,87.42
2023-05-22T01:32:10.957Z,88.69
2023-05-22T01:34:41.598Z,88.89
2023-05-22T01:37:11.361Z,87.08
2023-05-22T01:39:39.449Z,86.83
2023-05-22T01:42:08.470Z,86.85
2023-05-22T01:44:36.773Z,88.38
2023-05-22T01:47:06.232Z,87.30
2023-05-22T01:49:37.129Z,87.34
2023-05-22T01:52:12.272Z,86.69
2023-05-22T01:54:47.301Z,88.54
2023-05-22T01:57:21.978Z,86.72
2023-05-22T01:59:55.550Z,87.54
2023-05-22T02:02:25.943Z,87.95
2023-05-22T02:05:00.786Z,87.61
2023-05-22T02:07:30.264Z,86.39
2023-05-22T02:09:59.717Z,86.44
2023-05-22T02:12:28.564Z,86.95
2023-05-22T02:14:56.810Z,85.97
2023-05-22T02:17:26.118Z,87.59
2023-05-22T02:19:55.670Z,87.73
2023-05-22T02:22:24.069Z,89.66
2023-05-22T02:24:52.232Z,89.72
2023-05-22T02:27:20.887Z,88.92
2023-05-22T02:29:49.005Z,89.01
2023-05-22T02:32:17.751Z,90.32
2023-05-22T02:34:45.926Z,88.64
2023-05-22T02:37:16.093Z,88.53
2023-05-22T02:39:44.253Z,87.84
2023-05-22T02:42:12.656Z,87.62
2023-05-22T02:44:40.767Z,89.52
2023-05-22T02:47:09.243Z,89.06
2023-05-22T02:49:37.380Z,88.06
2023-05-22T02:52:06.375Z,89.29
2023-05-22T02:54:35.922Z,89.25
2023-05-22T02:57:04.477Z,87.23
2023-05-22T02:59:32.891Z,86.82
2023-05-22T03:02:01.437Z,86.12
2023-05-22T03:04:30.516Z,85.61
2023-05-22T03:06:59.164Z,85.43
2023-05-22T03:09:27.315Z,85.99
2023-05-22T03:11:57.166Z,85.45
2023-05-22T03:14:25.373Z,85.49
2023-05-22T03:16:54.768Z,85.11
2023-05-22T03:19:24.977Z,85.12
2023-05-22T03:21:53.572Z,83.93
2023-05-22T03:24:21.836Z,83.71
2023-05-22T03:26:50.360Z,82.11
2023-05-22T03:29:20.081Z,80.71
2023-05-22T03:31:48.745Z,79.01
2023-05-22T03:34:17.079Z,76.90
2023-05-22T03:36:46.130Z,76.68
2023-05-22T03:39:14.298Z,76.73
2023-05-22T03:41:42.929Z,76.15
2023-05-22T03:44:11.143Z,75.34
2023-05-22T03:46:40.939Z,72.90
2023-05-22T03:49:09.070Z,71.46
2023-05-22T03:51:37.459Z,67.58
2023-05-22T03:54:06.094Z,66.71
2023-05-22T03:56:34.487Z,67.05
2023-05-22T03:59:02.594Z,65.90
2023-05-22T04:01:31.044Z,64.42
2023-05-22T04:04:00.938Z,65.67
2023-05-22T04:06:32.901Z,64.04
2023-05-22T04:09:02.260Z,62.45
2023-05-22T04:11:32.209Z,61.42
2023-05-22T04:14:04.656Z,61.08
2023-05-22T04:16:33.273Z,59.58
2023-05-22T04:19:03.432Z,58.54
2023-05-22T04:21:34.462Z,58.67
2023-05-22T04:24:07.344Z,61.13
2023-05-22T04:26:36.343Z,58.40
2023-05-22T04:29:04.576Z,57.51
2023-05-22T04:31:33.292Z,55.77
2023-05-22T04:34:02.962Z,56.52
2023-05-22T04:36:31.445Z,57.59
2023-05-22T04:39:00.458Z,58.29
2023-05-22T04:41:28.927Z,58.65
2023-05-22T04:43:57.040Z,60.61
2023-05-22T04:46:25.662Z,60.92
2023-05-22T04:48:53.955Z,61.55
2023-05-22T04:51:24.040Z,63.21
2023-05-22T04:53:52.279Z,62.67
2023-05-22T04:56:31.791Z,63.12
2023-05-22T04:59:04.847Z,62.71
2023-05-22T05:01:35.075Z,63.77
2023-05-22T05:04:04.255Z,62.82
2023-05-22T05:06:34.803Z,63.92
2023-05-22T05:09:03.010Z,64.04
2023-05-22T05:11:31.515Z,63.96
2023-05-22T05:13:59.685Z,64.17
2023-05-22T05:16:28.320Z,63.45
2023-05-22T05:18:56.653Z,63.46
2023-05-22T05:21:28.017Z,63.61
2023-05-22T05:23:57.658Z,65.50
2023-05-22T05:26:27.281Z,65.29
2023-05-22T05:28:56.744Z,63.73
2023-05-22T05:31:25.425Z,63.17
2023-05-22T05:33:54.819Z,62.73
2023-05-22T05:36:24.900Z,62.23
2023-05-22T05:38:53.055Z,62.15
2023-05-22T05:41:23.113Z,61.54
2023-05-22T05:43:52.295Z,61.51
2023-05-22T05:46:20.504Z,62.48
2023-05-22T05:48:48.763Z,61.94
2023-05-22T05:51:17.152Z,61.15
2023-05-22T05:53:45.394Z,60.87
2023-05-22T05:56:13.885Z,60.61
2023-05-22T05:58:43.421Z,59.62
2023-05-22T06:01:12.769Z,59.09
2023-05-22T06:03:41.342Z,58.84
2023-05-22T06:06:10.735Z,59.15
2023-05-22T06:08:39.003Z,56.34
2023-05-22T06:11:07.473Z,54.05
2023-05-22T06:13:35.601Z,54.28
2023-05-22T06:16:06.895Z,53.38
2023-05-22T06:18:35.226Z,52.64
2023-05-22T06:21:03.674Z,51.98
2023-05-22T06:23:32.408Z,51.62
2023-05-22T06:26:01.191Z,52.25
2023-05-22T06:28:29.432Z,53.47
2023-05-22T06:30:59.231Z,52.28
2023-05-22T06:33:28.945Z,50.95
2023-05-22T06:35:57.497Z,49.53
2023-05-22T06:38:26.630Z,49.91
2023-05-22T06:40:54.820Z,51.01
2023-05-22T06:43:23.009Z,51.08
2023-05-22T06:45:51.468Z,50.76
2023-05-22T06:48:19.897Z,51.02
2023-05-22T06:50:49.708Z,51.49
2023-05-22T06:53:17.927Z,52.62
2023-05-22T06:55:46.400Z,51.65
2023-05-22T06:58:14.584Z,51.78
2023-05-22T07:00:43.049Z,51.32
2023-05-22T07:03:12.068Z,50.69
2023-05-22T07:05:40.331Z,51.27
2023-05-22T07:08:10.739Z,51.49
2023-05-22T07:10:39.442Z,50.56
2023-05-22T07:13:07.747Z,48.65
2023-05-22T07:15:36.274Z,48.00
2023-05-22T07:18:04.668Z,46.06
2023-05-22T07:20:33.322Z,48.31
2023-05-22T07:23:01.526Z,48.90
2023-05-22T07:25:31.575Z,49.06
2023-05-22T07:28:02.110Z,49.55
2023-05-22T07:30:31.456Z,48.84
2023-05-22T07:32:59.736Z,48.28
2023-05-22T07:35:28.246Z,48.33
2023-05-22T07:37:56.576Z,47.47
2023-05-22T07:40:26.560Z,46.85
2023-05-22T07:42:56.622Z,47.59
2023-05-22T07:45:26.583Z,46.45
2023-05-22T07:47:56.268Z,46.05
2023-05-22T07:50:26.792Z,46.06
2023-05-22T07:52:55.010Z,45.43
2023-05-22T07:55:23.547Z,45.55
2023-05-22T07:57:53.082Z,45.69
2023-05-22T08:00:23.543Z,46.14
2023-05-22T08:02:51.707Z,44.85
2023-05-22T08:05:20.599Z,45.37
2023-05-22T08:07:48.921Z,43.49
2023-05-22T08:10:18.818Z,43.39
2023-05-22T08:12:47.221Z,43.08
2023-05-22T08:15:16.220Z,42.77
2023-05-22T08:17:45.879Z,43.17
2023-05-22T08:20:14.687Z,41.55
2023-05-22T08:22:42.976Z,42.32
2023-05-22T08:25:11.511Z,42.14
2023-05-22T08:27:39.685Z,41.81
2023-05-22T08:30:09.726Z,41.58
2023-05-22T08:32:37.943Z,42.02
2023-05-22T08:35:08.866Z,41.82
2023-05-22T08:37:37.179Z,42.93
2023-05-22T08:40:07.284Z,40.67
2023-05-22T08:42:35.525Z,41.55
2023-05-22T08:45:04.441Z,41.74
2023-05-22T08:47:35.414Z,39.46
2023-05-22T08:50:04.692Z,39.20
2023-05-22T08:52:44.230Z,38.60
2023-05-22T08:55:12.940Z,38.67
2023-05-22T08:57:42.400Z,38.03
2023-05-22T09:00:11.649Z,38.31
2023-05-22T09:02:39.885Z,37.66
2023-05-22T09:05:09.726Z,37.79
2023-05-22T09:07:40.806Z,38.32
2023-05-22T09:10:09.760Z,39.32
2023-05-22T09:12:38.221Z,37.80
2023-05-22T09:19:06.545Z,36.25
2023-05-22T09:21:38.135Z,37.45
2023-05-22T09:24:09.312Z,37.20
2023-05-22T09:26:38.025Z,38.22
2023-05-22T09:29:07.385Z,36.49
2023-05-22T09:31:43.133Z,36.97
2023-05-22T09:34:14.344Z,36.05
2023-05-22T09:36:43.150Z,36.04
2023-05-22T09:39:12.739Z,36.27
2023-05-22T09:41:41.439Z,35.72
2023-05-22T09:44:17.407Z,35.38
2023-05-22T09:46:48.309Z,34.89
2023-05-22T09:49:17.485Z,33.12
2023-05-22T09:51:48.978Z,32.11
2023-05-22T09:54:21.730Z,32.51
2023-05-22T09:56:51.602Z,31.29
2023-05-22T09:59:22.591Z,32.20
2023-05-22T10:01:51.924Z,31.92
2023-05-22T10:04:22.967Z,33.56
2023-05-22T10:06:53.124Z,31.55
2023-05-22T10:09:30.787Z,32.34
2023-05-22T10:12:04.408Z,32.88
2023-05-22T10:14:33.188Z,31.71
2023-05-22T10:17:06.688Z,36.37
2023-05-22T10:19:39.683Z,38.22
2023-05-22T10:22:10.209Z,37.58
2023-05-22T10:24:41.303Z,38.45
2023-05-22T10:27:09.711Z,37.92
2023-05-22T10:29:46.342Z,38.10
2023-05-22T10:32:22.700Z,38.93
2023-05-22T10:34:59.135Z,39.14
2023-05-22T10:37:43.296Z,38.49
2023-05-22T10:40:16.206Z,38.92
2023-05-22T10:42:45.197Z,39.42
2023-05-22T10:45:13.396Z,37.09
2023-05-22T10:47:42.275Z,36.14
2023-05-22T10:50:12.072Z,36.18
2023-05-22T10:52:41.588Z,34.87
2023-05-22T10:55:10.288Z,33.27
2023-05-22T10:57:40.761Z,35.07
2023-05-22T11:00:11.574Z,36.81
2023-05-22T11:02:42.466Z,35.31
2023-05-22T11:05:36.467Z,35.87
2023-05-22T11:08:39.318Z,36.52
2023-05-22T11:11:16.808Z,35.12
2023-05-22T11:13:52.967Z,37.41
2023-05-22T11:16:22.557Z,39.01
2023-05-22T11:18:51.069Z,39.35
2023-05-22T11:21:19.258Z,40.34
2023-05-22T11:23:48.639Z,39.32
2023-05-22T11:26:27.089Z,39.18
2023-05-22T11:29:00.856Z,40.34
2023-05-22T11:31:30.735Z,38.89
2023-05-22T11:33:59.435Z,37.73
2023-05-22T11:36:29.611Z,38.63
2023-05-22T11:39:00.116Z,38.62
2023-05-22T11:41:36.996Z,34.84
2023-05-22T11:44:09.788Z,35.46
2023-05-22T11:46:39.965Z,35.44
2023-05-22T11:49:10.398Z,35.95
2023-05-22T11:51:40.513Z,35.75
2023-05-22T11:54:09.043Z,35.94
2023-05-22T11:56:37.170Z,36.38
2023-05-22T11:59:07.441Z,36.04
2023-05-22T12:01:36.459Z,34.83
2023-05-22T12:04:06.223Z,34.03
2023-05-22T12:06:34.618Z,35.06
2023-05-22T12:09:03.768Z,33.20
2023-05-22T12:11:36.363Z,32.88
2023-05-22T12:14:06.343Z,33.26
2023-05-22T12:16:37.242Z,32.93
2023-05-22T12:19:12.335Z,33.83
2023-05-22T12:21:41.955Z,34.22
2023-05-22T12:24:12.562Z,34.43
2023-05-22T12:26:40.783Z,34.16
2023-05-22T12:29:10.598Z,33.87
2023-05-22T12:31:39.160Z,34.51
2023-05-22T12:34:08.924Z,34.97
2023-05-22T12:36:40.030Z,34.96
2023-05-22T12:39:10.538Z,33.48
2023-05-22T12:41:39.190Z,34.60
2023-05-22T12:44:07.718Z,34.19
2023-05-22T12:46:37.615Z,33.95
2023-05-22T12:49:06.436Z,33.86
2023-05-22T12:51:34.732Z,34.29
2023-05-22T12:54:03.872Z,34.97
2023-05-22T12:56:32.754Z,33.77
2023-05-22T12:59:01.058Z,34.03
2023-05-22T13:01:29.505Z,34.35
2023-05-22T13:03:59.339Z,33.83
2023-05-22T13:06:30.223Z,34.67
2023-05-22T13:08:58.972Z,34.83
2023-05-22T13:11:27.317Z,34.07
2023-05-22T13:13:56.024Z,33.73
2023-05-22T13:16:24.228Z,33.76
2023-05-22T13:18:52.816Z,33.08
2023-05-22T13:21:24.058Z,34.05
2023-05-22T13:23:53.707Z,34.38
2023-05-22T13:26:22.848Z,32.69
2023-05-22T13:28:51.640Z,33.43
2023-05-22T13:31:20.006Z,34.10
2023-05-22T13:33:48.606Z,33.48
2023-05-22T13:36:16.770Z,31.95
2023-05-22T13:38:46.819Z,32.56
2023-05-22T13:41:17.793Z,31.34
2023-05-22T13:43:46.574Z,32.15
2023-05-22T13:46:14.791Z,33.74
2023-05-22T13:48:43.221Z,32.94
2023-05-22T13:51:11.367Z,32.41
2023-05-22T13:53:39.872Z,33.28
2023-05-22T13:56:09.435Z,33.23
2023-05-22T13:58:37.923Z,34.03
2023-05-22T14:01:06.148Z,34.03
2023-05-22T14:03:35.089Z,34.21
2023-05-22T14:06:03.302Z,34.26
2023-05-22T14:08:31.810Z,33.48
2023-05-22T14:10:59.975Z,32.57
2023-05-22T14:13:29.942Z,31.91
2023-05-22T14:15:58.201Z,34.01
2023-05-22T14:18:26.670Z,33.91
2023-05-22T14:20:54.945Z,32.85
2023-05-22T14:23:23.650Z,33.15
2023-05-22T14:25:52.150Z,33.89
2023-05-22T14:28:20.561Z,33.66
2023-05-22T14:30:53.071Z,32.33
2023-05-22T14:33:21.582Z,33.18
2023-05-22T14:35:51.676Z,33.08
2023-05-22T14:38:20.167Z,34.20
2023-05-22T14:40:48.398Z,32.65
2023-05-22T14:43:16.871Z,33.65
2023-05-22T14:45:45.099Z,33.32
2023-05-22T14:48:15.077Z,33.10
2023-05-22T14:50:43.295Z,33.54
2023-05-22T14:53:11.825Z,33.87
2023-05-22T14:55:40.072Z,34.09
2023-05-22T14:58:08.759Z,33.92
2023-05-22T15:00:37.216Z,33.68
2023-05-22T15:03:05.637Z,34.43
2023-05-22T15:05:35.308Z,34.41
2023-05-22T15:08:04.098Z,35.32
2023-05-22T15:10:32.241Z,34.49
2023-05-22T15:13:00.701Z,33.66
2023-05-22T15:15:28.896Z,34.03
2023-05-22T15:18:00.450Z,34.34
2023-05-22T15:20:28.751Z,34.52
2023-05-22T15:22:58.719Z,35.08
2023-05-22T15:25:27.215Z,34.57
2023-05-22T15:27:55.649Z,34.62
2023-05-22T15:30:24.124Z,34.81
2023-05-22T15:32:52.660Z,34.81
2023-05-22T15:35:21.049Z,33.32
2023-05-22T15:37:49.488Z,34.07
2023-05-22T15:40:22.746Z,33.28
2023-05-22T15:42:52.700Z,32.31
2023-05-22T15:45:21.418Z,31.93
2023-05-22T15:47:50.134Z,32.20
2023-05-22T15:50:18.474Z,29.98
2023-05-22T15:52:47.018Z,29.47
2023-05-22T15:55:15.234Z,30.25
2023-05-22T15:57:45.065Z,31.09
2023-05-22T16:00:14.908Z,32.59
2023-05-22T16:02:44.115Z,33.21
2023-05-22T16:05:12.491Z,34.09
2023-05-22T16:07:40.918Z,33.26
2023-05-22T16:10:10.104Z,33.53
2023-05-22T16:12:41.008Z,33.56
2023-05-22T16:15:11.845Z,33.20
2023-05-22T16:17:40.667Z,32.47
2023-05-22T16:20:10.112Z,32.12
2023-05-22T16:22:47.914Z,30.94
2023-05-22T16:25:18.061Z,29.52
2023-05-22T16:27:48.957Z,28.28
2023-05-22T16:30:19.045Z,26.43
2023-05-22T16:32:49.565Z,26.58
2023-05-22T16:35:19.585Z,28.08
2023-05-22T16:37:48.499Z,26.17
2023-05-22T16:40:17.575Z,26.42
2023-05-22T16:42:46.012Z,25.93
2023-05-22T16:45:14.249Z,26.59
2023-05-22T16:47:44.123Z,27.37
2023-05-22T16:50:12.504Z,27.82
2023-05-22T16:52:43.740Z,27.44
2023-05-22T16:55:11.912Z,26.96
2023-05-22T16:57:41.022Z,28.27
2023-05-22T17:00:11.009Z,28.45
2023-05-22T17:02:39.789Z,27.97
2023-05-22T17:05:10.252Z,28.91
2023-05-22T17:07:38.691Z,28.74
2023-05-22T17:10:07.855Z,28.98
2023-05-22T17:12:36.355Z,29.55
2023-05-22T17:15:05.930Z,29.70
2023-05-22T17:17:34.386Z,30.55
2023-05-22T17:20:04.461Z,31.43
2023-05-22T17:22:36.090Z,35.22
2023-05-22T17:25:04.917Z,36.33
2023-05-22T17:27:36.406Z,37.67
2023-05-22T17:30:06.418Z,39.08
2023-05-22T17:32:35.266Z,39.44
2023-05-22T17:35:04.974Z,40.20
2023-05-22T17:37:34.839Z,41.21
2023-05-22T17:40:05.939Z,41.89
2023-05-22T17:42:34.853Z,42.28
2023-05-22T17:45:08.670Z,42.99
2023-05-22T17:47:37.157Z,42.74
2023-05-22T17:50:06.241Z,44.27
2023-05-22T17:52:37.285Z,43.72
2023-05-22T17:55:06.755Z,44.94
2023-05-22T17:57:35.201Z,44.43
2023-05-22T18:00:05.848Z,44.49
2023-05-22T18:02:34.489Z,45.48
2023-05-22T18:05:02.695Z,46.38
2023-05-22T18:07:31.082Z,46.45
2023-05-22T18:10:00.622Z,46.37
2023-05-22T18:12:31.991Z,46.47
2023-05-22T18:15:00.606Z,47.32
2023-05-22T18:17:29.116Z,48.28
2023-05-22T18:19:57.424Z,48.49
2023-05-22T18:22:26.796Z,49.37
2023-05-22T18:24:54.924Z,50.19
2023-05-22T18:27:24.737Z,51.12
2023-05-22T18:29:53.013Z,50.63
2023-05-22T18:32:21.417Z,51.91
2023-05-22T18:34:49.624Z,52.66
2023-05-22T18:37:19.017Z,50.76
2023-05-22T18:39:47.935Z,52.88
2023-05-22T18:42:16.384Z,53.12
2023-05-22T18:44:48.182Z,54.69
2023-05-22T18:47:17.979Z,54.42
2023-05-22T18:49:46.192Z,56.51
2023-05-22T18:52:14.724Z,54.03
2023-05-22T18:54:43.444Z,54.34
2023-05-22T18:57:12.006Z,53.97
2023-05-22T18:59:41.359Z,56.42
2023-05-22T19:02:11.716Z,57.24
2023-05-22T19:04:40.798Z,56.04
2023-05-22T19:07:09.398Z,58.21
2023-05-22T19:09:38.236Z,58.05
2023-05-22T19:12:10.879Z,61.87
2023-05-22T19:14:39.039Z,60.98
2023-05-22T19:17:07.661Z,63.12
2023-05-22T19:19:37.351Z,59.10
2023-05-22T19:22:19.891Z,60.39
2023-05-22T19:24:48.179Z,63.18
2023-05-22T19:27:16.626Z,63.88
2023-05-22T19:29:45.460Z,66.20
2023-05-22T19:32:14.427Z,64.18
2023-05-22T19:34:43.948Z,65.47
2023-05-22T19:37:12.409Z,63.58
2023-05-22T19:39:40.642Z,65.59
2023-05-22T19:42:10.773Z,66.89
2023-05-22T19:44:39.294Z,68.57
2023-05-22T19:47:08.159Z,70.54
2023-05-22T19:49:37.157Z,67.82
2023-05-22T19:52:07.290Z,70.05
2023-05-22T19:54:35.797Z,68.62
2023-05-22T19:57:04.454Z,69.27
2023-05-22T19:59:35.833Z,70.92
2023-05-22T20:02:05.233Z,71.17
2023-05-22T20:04:34.414Z,70.58
2023-05-22T20:07:05.218Z,70.19
2023-05-22T20:09:34.702Z,68.50
2023-05-22T20:12:03.289Z,70.01
2023-05-22T20:14:31.542Z,70.52
2023-05-22T20:17:00.103Z,71.73
2023-05-22T20:19:28.604Z,71.54
2023-05-22T20:21:58.252Z,69.94
2023-05-22T20:24:26.984Z,72.60
2023-05-22T20:26:56.960Z,73.89
2023-05-22T20:29:25.573Z,72.26
2023-05-22T20:31:54.944Z,73.33
2023-05-22T20:34:23.514Z,73.82
2023-05-22T20:36:53.064Z,69.68
2023-05-22T20:39:22.233Z,70.29
2023-05-22T20:41:50.886Z,71.80
2023-05-22T20:44:23.628Z,71.78
2023-05-22T20:46:53.331Z,73.86
2023-05-22T20:49:21.804Z,75.90
2023-05-22T20:51:51.511Z,75.88
2023-05-22T20:54:19.549Z,75.33
2023-05-22T20:56:48.100Z,76.82
2023-05-22T20:59:16.262Z,77.87
2023-05-22T21:01:46.153Z,74.90
2023-05-22T21:04:14.252Z,73.30
2023-05-22T21:06:42.670Z,75.32
2023-05-22T21:09:10.855Z,74.89
2023-05-22T21:11:39.258Z,77.54
2023-05-22T21:14:07.357Z,76.58
2023-05-22T21:16:39.133Z,76.30
2023-05-22T21:19:09.091Z,78.50
2023-05-22T21:21:41.587Z,75.99
2023-05-22T21:24:10.152Z,73.95
2023-05-22T21:26:38.775Z,72.92
2023-05-22T21:29:07.081Z,72.87
2023-05-22T21:31:35.981Z,79.36
2023-05-22T21:34:05.579Z,76.97
2023-05-22T21:36:36.391Z,77.50
2023-05-22T21:39:04.849Z,76.46
2023-05-22T21:41:33.303Z,76.36
2023-05-22T21:44:01.425Z,78.08
2023-05-22T21:46:29.867Z,77.63
2023-05-22T21:48:57.983Z,74.72
2023-05-22T21:51:26.431Z,78.32
2023-05-22T21:53:55.955Z,82.86
2023-05-22T21:56:24.385Z,79.45
2023-05-22T21:58:52.491Z,79.94
2023-05-22T22:01:20.817Z,76.98
2023-05-22T22:03:49.293Z,75.83
2023-05-22T22:06:17.553Z,76.92
2023-05-22T22:08:45.968Z,75.72
2023-05-22T22:11:15.497Z,81.50
2023-05-22T22:13:43.979Z,80.92
2023-05-22T22:16:12.380Z,78.57
2023-05-22T22:18:40.934Z,77.15
2023-05-22T22:21:09.075Z,76.45
2023-05-22T22:23:37.561Z,80.18
2023-05-22T22:26:05.673Z,82.51
2023-05-22T22:28:35.602Z,84.22
2023-05-22T22:31:03.822Z,83.47
2023-05-22T22:33:32.819Z,83.70
2023-05-22T22:36:01.089Z,85.62
2023-05-22T22:38:32.757Z,85.99
2023-05-22T22:41:01.658Z,86.29
2023-05-22T22:43:30.051Z,86.05
2023-05-22T22:45:59.589Z,85.08
2023-05-22T22:48:28.819Z,85.94
2023-05-22T22:50:57.932Z,84.27
2023-05-22T22:53:26.339Z,86.67
2023-05-22T22:55:56.756Z,85.56
2023-05-22T22:58:25.336Z,87.62
2023-05-22T23:00:54.632Z,84.91
2023-05-22T23:03:24.492Z,84.28
2023-05-22T23:05:52.635Z,82.47
2023-05-22T23:08:21.044Z,84.85
2023-05-22T23:10:49.217Z,83.33
2023-05-22T23:13:17.633Z,84.52
2023-05-22T23:15:45.813Z,86.19
2023-05-22T23:18:14.354Z,84.51
2023-05-22T23:20:45.068Z,83.79
2023-05-22T23:23:13.532Z,88.25
2023-05-22T23:25:42.018Z,84.90
2023-05-22T23:28:10.541Z,84.38
2023-05-22T23:30:38.668Z,85.22
2023-05-22T23:33:07.723Z,87.90
2023-05-22T23:35:36.012Z,86.69
2023-05-22T23:38:05.815Z,85.97
2023-05-22T23:40:34.013Z,86.39
2023-05-22T23:43:02.455Z,88.60
2023-05-22T23:45:30.849Z,86.98
2023-05-22T23:47:59.398Z,88.21
2023-05-22T23:50:27.556Z,88.93
2023-05-22T23:52:55.972Z,86.71
2023-05-22T23:55:25.529Z,86.65
2023-05-22T23:57:53.942Z,87.60
